Time;durP1;ratioP1;P1;durP2;ratioP2;P2;SDS_P1;SDS_P2;PMS_P1;PMS_P2;Temp;Humidity;BMP_temperature;BMP_pressure;BME280_temperature;BME280_humidity;BME280_pressure;Samples;Min_cycle;Max_cycle;Signal;HPM_P1;HPM_P2
2022/09/19 00:01:07;;;;;;;10.50;9.53;;;;;;;10.62;98.17;99781.69;4917824;29;20047;-76
2022/09/19 00:03:33;;;;;;;6.40;5.80;;;;;;;10.60;97.97;99783.72;4928579;29;20068;-77
2022/09/19 00:05:58;;;;;;;7.10;6.50;;;;;;;10.50;98.30;99773.38;4934810;29;20035;-77
2022/09/19 00:08:24;;;;;;;6.07;5.47;;;;;;;10.48;98.24;99764.75;4933403;29;20043;-78
2022/09/19 00:10:51;;;;;;;6.47;5.10;;;;;;;10.56;98.03;99775.28;4931684;29;20037;-77
2022/09/19 00:13:17;;;;;;;6.50;4.43;;;;;;;10.52;97.91;99766.03;4928407;29;20503;-75
2022/09/19 00:15:49;;;;;;;6.00;4.20;;;;;;;10.51;97.68;99767.84;4908359;29;20047;-76
2022/09/19 00:18:15;;;;;;;4.30;3.90;;;;;;;10.51;97.92;99761.72;4925908;29;20040;-76
2022/09/19 00:20:43;;;;;;;4.83;3.93;;;;;;;10.47;97.63;99758.59;4927948;29;20059;-76
2022/09/19 00:26:01;;;;;;;4.57;4.13;;;;;;;10.44;97.69;99744.84;4924804;29;20571;-76
2022/09/19 00:28:27;;;;;;;4.70;3.53;;;;;;;10.41;97.98;99754.03;4905774;29;20462;-77
2022/09/19 00:30:57;;;;;;;4.43;4.03;;;;;;;10.37;98.46;99751.91;4920691;29;20407;-76
2022/09/19 00:33:27;;;;;;;3.97;3.57;;;;;;;10.31;98.53;99744.66;4917268;29;20126;-77
2022/09/19 00:35:54;;;;;;;4.37;3.97;;;;;;;10.21;98.23;99721.84;4899983;29;20177;-78
2022/09/19 00:38:24;;;;;;;3.50;3.20;;;;;;;10.28;98.49;99731.72;4916996;29;20032;-77
2022/09/19 00:40:50;;;;;;;4.33;3.47;;;;;;;10.15;98.47;99716.41;4916973;29;20040;-77
2022/09/19 00:43:17;;;;;;;6.03;3.97;;;;;;;10.22;99.04;99731.47;4916637;29;20051;-76
2022/09/19 00:45:44;;;;;;;4.07;3.77;;;;;;;9.92;99.21;99684.59;4916705;29;20047;-77
2022/09/19 00:48:13;;;;;;;4.10;3.63;;;;;;;10.06;99.72;99713.00;4916584;29;20036;-77
2022/09/19 00:50:39;;;;;;;5.43;3.67;;;;;;;10.02;100.00;99722.34;4899855;29;20615;-76
2022/09/19 00:53:12;;;;;;;4.30;3.50;;;;;;;9.95;100.00;99716.13;4917428;29;20035;-75
2022/09/19 00:55:39;;;;;;;4.60;4.10;;;;;;;9.91;100.00;99721.00;4924240;29;20040;-76
2022/09/19 00:58:16;;;;;;;4.43;4.03;;;;;;;9.89;100.00;99717.69;4918383;29;20036;-78
2022/09/19 01:00:42;;;;;;;4.93;4.03;;;;;;;9.91;100.00;99721.00;4917508;29;20067;-77
2022/09/19 01:03:09;;;;;;;5.83;3.67;;;;;;;9.88;100.00;99709.91;4916966;29;20531;-76
2022/09/19 01:06:04;;;;;;;4.97;4.37;;;;;;;9.90;100.00;99706.03;4917342;29;20050;-76
2022/09/19 01:08:35;;;;;;;5.23;4.73;;;;;;;9.84;100.00;99692.66;4918182;29;20067;-76
2022/09/19 01:11:07;;;;;;;4.33;3.80;;;;;;;9.79;100.00;99687.88;4918620;29;20059;-76
2022/09/19 01:14:14;;;;;;;4.47;4.07;;;;;;;9.76;100.00;99687.41;4916317;29;20043;-77
2022/09/19 01:16:50;;;;;;;4.80;4.30;;;;;;;9.71;100.00;99687.16;4916636;29;20036;-77
2022/09/19 01:19:37;;;;;;;4.47;3.97;;;;;;;9.63;100.00;99678.25;4918866;29;20035;-78
2022/09/19 01:22:34;;;;;;;6.13;4.40;;;;;;;9.55;100.00;99683.66;4925338;29;20036;-77
2022/09/19 01:25:14;;;;;;;5.00;4.50;;;;;;;9.48;100.00;99674.75;4919500;29;20066;-78
2022/09/19 01:28:02;;;;;;;4.53;4.10;;;;;;;9.40;100.00;99674.84;4882904;29;20055;-78
2022/09/19 01:30:30;;;;;;;5.40;4.15;;;;;;;9.31;100.00;99671.44;4900203;29;20079;-78
2022/09/19 01:33:18;;;;;;;4.25;3.85;;;;;;;9.26;100.00;99667.69;4901771;29;20040;-78
2022/09/19 01:35:53;;;;;;;4.40;3.90;;;;;;;9.20;100.00;99663.91;4900035;29;20517;-77
2022/09/19 01:38:29;;;;;;;4.63;3.77;;;;;;;9.21;100.00;99668.19;4884010;29;20405;-77
2022/09/19 01:40:56;;;;;;;4.50;4.10;;;;;;;9.17;100.00;99660.78;4901986;29;20041;-78
2022/09/19 01:43:22;;;;;;;4.67;4.13;;;;;;;9.03;100.00;99638.50;4902254;29;20072;-77
2022/09/19 01:45:50;;;;;;;4.17;3.77;;;;;;;9.15;100.00;99663.63;4901667;29;20041;-77
2022/09/19 01:48:26;;;;;;;4.07;3.63;;;;;;;9.13;100.00;99662.97;4900800;29;20180;-77
2022/09/19 01:51:16;;;;;;;4.03;3.37;;;;;;;9.09;100.00;99661.69;4900642;29;20849;-77
2022/09/19 01:54:24;;;;;;;4.00;3.60;;;;;;;9.07;100.00;99649.59;4901104;29;20048;-77
2022/09/19 01:57:14;;;;;;;3.93;3.40;;;;;;;9.08;100.00;99648.59;4885039;29;20036;-77
2022/09/19 01:59:45;;;;;;;4.30;3.90;;;;;;;9.04;100.00;99652.63;4903540;29;20090;-76
2022/09/19 02:02:22;;;;;;;4.40;4.00;;;;;;;8.91;100.00;99627.47;4905750;29;20036;-77
2022/09/19 02:04:52;;;;;;;5.27;3.93;;;;;;;9.00;100.00;99641.53;4905291;29;20205;-77
2022/09/19 02:07:39;;;;;;;4.37;3.97;;;;;;;8.98;100.00;99649.69;4902632;29;20556;-78
2022/09/19 02:10:28;;;;;;;4.03;3.63;;;;;;;8.89;100.00;99640.09;4907443;29;20076;-76
2022/09/19 02:12:56;;;;;;;4.20;3.78;;;;;;;8.87;100.00;99639.47;4907124;29;20048;-77
2022/09/19 02:15:26;;;;;;;;;;;;;;;8.91;100.00;99640.75;4892788;29;20036;-77
2022/09/19 02:17:58;;;;;;;4.80;4.20;;;;;;;8.85;100.00;99635.34;4910986;29;19919;-76
2022/09/19 02:20:29;;;;;;;6.70;4.47;;;;;;;8.82;100.00;99635.69;4911271;29;20123;-76
2022/09/19 02:23:22;;;;;;;4.20;3.80;;;;;;;8.83;100.00;99632.03;4910728;29;20044;-77
2022/09/19 02:25:52;;;;;;;5.43;3.93;;;;;;;8.77;100.00;99625.63;4918509;29;20056;-76
2022/09/19 02:28:23;;;;;;;4.10;3.70;;;;;;;8.71;100.00;99610.41;4929388;29;20051;-77
2022/09/19 02:30:49;;;;;;;4.20;3.73;;;;;;;8.79;100.00;99623.59;4930921;29;20055;-77
2022/09/19 02:33:16;;;;;;;7.03;4.63;;;;;;;8.75;100.00;99619.66;4914260;29;20044;-77
2022/09/19 02:35:52;;;;;;;6.43;4.03;;;;;;;8.76;100.00;99616.00;4929810;29;20597;-76
2022/09/19 02:38:33;;;;;;;4.70;4.20;;;;;;;8.68;100.00;99610.78;4933062;29;20083;-77
2022/09/19 02:41:12;;;;;;;4.03;3.73;;;;;;;8.67;100.00;99619.72;4928108;29;20302;-77
2022/09/19 02:43:50;;;;;;;6.27;4.50;;;;;;;8.59;100.00;99617.94;4922612;29;20046;-76
2022/09/19 02:46:54;;;;;;;4.63;4.23;;;;;;;8.60;100.00;99616.13;4920317;29;20488;-75
2022/09/19 02:49:38;;;;;;;5.17;4.17;;;;;;;8.55;100.00;99610.53;4899500;29;20040;-76
2022/09/19 02:52:25;;;;;;;4.90;4.40;;;;;;;8.39;100.00;99587.59;4922454;29;20124;-76
2022/09/19 02:54:55;;;;;;;5.20;4.50;;;;;;;8.52;100.00;99606.41;4921291;29;20043;-76
2022/09/19 02:57:24;;;;;;;5.17;4.67;;;;;;;8.48;100.00;99599.81;4920754;29;20044;-76
2022/09/19 02:59:58;;;;;;;5.47;4.93;;;;;;;8.52;100.00;99605.56;4919289;29;20040;-77
2022/09/19 03:02:36;;;;;;;5.13;4.40;;;;;;;8.51;100.00;99607.41;4920885;29;20066;-76
2022/09/19 03:05:08;;;;;;;5.28;4.22;;;;;;;8.49;100.00;99598.81;4920226;29;20039;-76
2022/09/19 03:07:38;;;;;;;5.43;4.50;;;;;;;8.48;100.00;99598.97;4903620;29;20407;-76
2022/09/19 03:10:07;;;;;;;5.77;4.17;;;;;;;8.47;100.00;99592.84;4920568;29;20044;-75
2022/09/19 03:12:51;;;;;;;4.33;3.93;;;;;;;8.46;100.00;99582.41;4903293;29;20500;-77
2022/09/19 03:15:21;;;;;;;4.93;4.17;;;;;;;8.45;100.00;99578.09;4919494;29;20036;-76
2022/09/19 03:17:50;;;;;;;7.60;4.80;;;;;;;8.47;100.00;99581.41;4919676;29;20103;-76
2022/09/19 03:20:17;;;;;;;7.18;5.03;;;;;;;8.43;100.00;99572.97;4918675;29;20039;-76
2022/09/19 03:22:45;;;;;;;7.67;5.13;;;;;;;8.43;100.00;99572.16;4918580;29;20036;-76
2022/09/19 03:25:14;;;;;;;6.97;5.57;;;;;;;8.38;100.00;99556.75;4918472;29;20044;-77
2022/09/19 03:27:40;;;;;;;5.00;4.43;;;;;;;8.40;100.00;99565.38;4919012;29;20055;-77
2022/09/19 03:30:09;;;;;;;7.33;5.60;;;;;;;8.37;100.00;99563.88;4902630;29;20040;-76
2022/09/19 03:32:36;;;;;;;6.45;4.95;;;;;;;8.38;100.00;99560.25;4924933;29;20047;-76
2022/09/19 03:35:04;;;;;;;7.90;5.30;;;;;;;8.29;100.00;99552.47;4909831;29;20036;-78
2022/09/19 03:37:32;;;;;;;7.17;6.03;;;;;;;8.13;100.00;99532.22;4925834;29;20063;-75
2022/09/19 03:40:02;;;;;;;6.72;6.07;;;;;;;8.34;100.00;99574.84;4931079;29;20048;-77
2022/09/19 03:42:31;;;;;;;7.17;6.33;;;;;;;8.25;100.00;99570.59;4940725;29;20024;-77
2022/09/19 03:44:57;;;;;;;11.35;7.60;;;;;;;8.26;100.00;99576.72;4941134;29;20048;-77
2022/09/19 03:47:22;;;;;;;8.57;7.60;;;;;;;8.21;100.00;99581.72;4941012;29;20071;-76
2022/09/19 03:49:51;;;;;;;8.67;7.00;;;;;;;8.20;100.00;99580.91;4928410;29;21401;-77
2022/09/19 03:52:19;;;;;;;12.23;8.13;;;;;;;8.22;100.00;99584.19;4918965;29;20561;-76
2022/09/19 03:54:44;;;;;;;11.50;7.80;;;;;;;8.25;100.00;99580.38;4918589;29;20080;-76
2022/09/19 03:57:12;;;;;;;10.27;8.23;;;;;;;8.27;100.00;99567.75;4903467;29;20031;-76
2022/09/19 03:59:39;;;;;;;14.93;9.18;;;;;;;8.32;100.00;99571.53;4922830;29;20076;-76
2022/09/19 04:02:06;;;;;;;12.70;8.30;;;;;;;8.35;100.00;99559.75;4924047;29;20031;-76
2022/09/19 04:04:32;;;;;;;14.33;9.03;;;;;;;8.44;100.00;99553.41;4940671;29;20032;-75
2022/09/19 04:07:19;;;;;;;18.30;8.70;;;;;;;8.54;100.00;99550.50;4923100;29;20068;-77
2022/09/19 04:09:45;;;;;;;11.97;8.20;;;;;;;8.59;100.00;99558.75;4924126;29;20036;-75
2022/09/19 04:12:12;;;;;;;11.33;8.23;;;;;;;8.61;100.00;99552.25;4923120;29;20031;-77
2022/09/19 04:14:38;;;;;;;16.37;9.37;;;;;;;8.58;100.00;99534.03;4924051;29;20113;-75
2022/09/19 04:17:06;;;;;;;18.67;9.03;;;;;;;8.74;100.00;99542.88;4935596;29;20036;-77
2022/09/19 04:23:11;;;;;;;22.07;8.50;;;;;;;8.78;100.00;99518.44;4918821;29;20511;-77
2022/09/19 04:25:38;;;;;;;12.35;8.20;;;;;;;8.84;100.00;99530.16;4919146;29;20099;-76
2022/09/19 04:28:11;;;;;;;14.43;8.97;;;;;;;8.80;100.00;99523.56;4919706;29;20055;-76
2022/09/19 04:30:40;;;;;;;15.03;9.20;;;;;;;8.83;100.00;99523.19;4919155;29;20047;-76
2022/09/19 04:33:08;;;;;;;15.85;8.25;;;;;;;8.90;100.00;99526.75;4922929;29;20040;-77
2022/09/19 04:35:36;;;;;;;10.25;8.07;;;;;;;8.92;100.00;99525.56;4917589;29;20079;-77
2022/09/19 04:38:03;;;;;;;10.70;7.95;;;;;;;8.97;100.00;99531.19;4916820;29;20036;-76
2022/09/19 04:40:29;;;;;;;10.80;8.20;;;;;;;8.98;100.00;99526.69;4917070;29;20056;-76
2022/09/19 04:42:55;;;;;;;12.23;8.83;;;;;;;9.03;100.00;99528.81;4912712;29;20040;-76
2022/09/19 04:45:20;;;;;;;14.03;8.97;;;;;;;9.05;100.00;99516.16;4910245;29;20135;-76
2022/09/19 04:47:47;;;;;;;14.43;8.40;;;;;;;9.08;100.00;99515.78;4892763;29;20100;-76
2022/09/19 04:50:14;;;;;;;12.33;7.63;;;;;;;9.12;100.00;99523.22;4917455;29;20047;-76
2022/09/19 04:52:40;;;;;;;10.10;8.37;;;;;;;9.11;100.00;99516.25;4922885;29;20044;-76
2022/09/19 04:55:07;;;;;;;10.73;8.20;;;;;;;9.17;100.00;99509.38;4921920;29;20036;-76
2022/09/19 04:57:33;;;;;;;11.63;8.13;;;;;;;9.17;100.00;99498.75;4920499;29;20184;-78
2022/09/19 05:00:01;;;;;;;11.03;8.20;;;;;;;9.18;100.00;99495.09;4921308;29;20084;-76
2022/09/19 05:02:31;;;;;;;13.30;9.07;;;;;;;9.19;100.00;99494.91;4917411;29;20032;-75
2022/09/19 05:04:56;;;;;;;10.70;8.47;;;;;;;9.23;100.00;99487.38;4917090;29;20051;-76
2022/09/19 05:07:28;;;;;;;10.13;8.40;;;;;;;9.27;100.00;99494.81;4916908;29;20096;-77
2022/09/19 05:09:54;;;;;;;10.70;7.40;;;;;;;9.28;100.00;99488.50;4935044;29;20039;-76
2022/09/19 05:12:20;;;;;;;12.20;8.97;;;;;;;9.30;100.00;99488.31;4937461;29;20016;-75
2022/09/19 05:14:46;;;;;;;9.60;8.13;;;;;;;9.28;100.00;99487.66;4931263;29;20032;-75
2022/09/19 05:17:12;;;;;;;11.30;8.83;;;;;;;9.27;100.00;99486.03;4930278;29;20135;-76
2022/09/19 05:19:38;;;;;;;13.33;8.57;;;;;;;9.35;100.00;99490.41;4926919;29;20043;-74
2022/09/19 05:22:03;;;;;;;11.10;8.37;;;;;;;9.37;100.00;99486.56;4931490;29;20044;-76
2022/09/19 05:24:29;;;;;;;13.63;8.40;;;;;;;9.41;100.00;99494.97;4923105;29;20047;-77
2022/09/19 05:26:56;;;;;;;13.60;8.87;;;;;;;9.49;100.00;99490.38;4919607;29;20078;-76
2022/09/19 05:29:22;;;;;;;10.25;7.68;;;;;;;9.56;100.00;99491.28;4917761;29;20036;-75
2022/09/19 05:31:48;;;;;;;13.67;8.30;;;;;;;9.61;100.00;99486.22;4916816;29;20048;-71
2022/09/19 05:34:13;;;;;;;10.87;7.90;;;;;;;9.59;100.00;99480.28;4915983;29;20036;-72
2022/09/19 05:36:39;;;;;;;12.70;8.83;;;;;;;9.68;100.00;99483.63;4916723;29;20036;-72
2022/09/19 05:39:05;;;;;;;11.63;8.67;;;;;;;9.72;100.00;99484.09;4916295;29;20036;-72
2022/09/19 05:41:32;;;;;;;12.80;8.60;;;;;;;9.70;100.00;99470.97;4915893;29;20044;-73
2022/09/19 05:43:58;;;;;;;10.83;7.93;;;;;;;9.80;100.00;99478.63;4913556;29;20416;-73
2022/09/19 05:46:24;;;;;;;12.57;9.23;;;;;;;9.81;100.00;99474.97;4901381;29;20043;-74
2022/09/19 05:48:49;;;;;;;11.27;9.30;;;;;;;9.85;100.00;99477.09;4898905;29;20041;-72
2022/09/19 05:51:15;;;;;;;13.00;9.90;;;;;;;9.86;100.00;99469.94;4905349;29;20032;-72
2022/09/19 05:53:53;;;;;;;11.60;9.70;;;;;;;9.91;100.00;99472.84;4902421;29;20059;-72
2022/09/19 05:56:19;;;;;;;12.93;9.07;;;;;;;9.92;100.00;99471.81;4919005;29;20044;-72
2022/09/19 05:58:45;;;;;;;13.23;9.83;;;;;;;9.92;100.00;99466.50;4902066;29;20377;-71
2022/09/19 06:01:12;;;;;;;15.17;8.90;;;;;;;9.97;100.00;99469.41;4902409;29;20103;-73
2022/09/19 06:03:39;;;;;;;13.67;10.80;;;;;;;9.98;100.00;99465.75;4920031;29;20115;-73
2022/09/19 06:06:11;;;;;;;14.60;9.97;;;;;;;10.08;100.00;99466.22;4919693;29;20072;-76
2022/09/19 06:08:40;;;;;;;11.73;10.10;;;;;;;10.08;100.00;99463.56;4902900;29;20491;-77
2022/09/19 06:11:07;;;;;;;11.40;8.03;;;;;;;10.14;100.00;99459.34;4920907;29;20039;-78
2022/09/19 06:16:17;;;;;;;10.63;8.57;;;;;;;10.22;100.00;99452.09;4921874;29;20032;-73
2022/09/19 06:18:44;;;;;;;12.20;8.20;;;;;;;10.29;100.00;99456.63;4928494;29;20042;-75
2022/09/19 06:21:35;;;;;;;14.53;8.27;;;;;;;10.38;100.00;99455.47;4890388;29;20103;-75
2022/09/19 06:24:07;;;;;;;13.17;8.73;;;;;;;10.45;100.00;99456.34;4923459;29;20051;-78
2022/09/19 06:26:35;;;;;;;8.30;7.43;;;;;;;10.33;100.00;99431.28;4909200;29;20147;-77
2022/09/19 06:29:51;;;;;;;10.63;8.65;;;;;;;10.53;100.00;99453.53;4895443;29;20047;-79
2022/09/19 06:33:01;;;;;;;8.63;7.73;;;;;;;10.50;100.00;99454.75;4896554;29;20055;-81
2022/09/19 06:35:35;;;;;;;8.63;7.30;;;;;;;10.36;100.00;99425.56;4894907;29;20490;-77
2022/09/19 06:41:22;;;;;;;9.67;7.80;;;;;;;10.35;100.00;99403.44;4905080;29;19971;-76
2022/09/19 06:43:51;;;;;;;8.70;7.80;;;;;;;10.59;100.00;99428.81;4907888;29;20064;-76
2022/09/19 06:46:19;;;;;;;9.63;8.38;;;;;;;10.53;100.00;99408.28;4892107;29;20441;-77
2022/09/19 06:48:48;;;;;;;29.47;10.07;;;;;;;10.62;100.00;99408.94;4906480;29;20060;-77
2022/09/19 06:51:19;;;;;;;8.73;7.80;;;;;;;10.71;100.00;99413.94;4908322;29;20069;-76
2022/09/19 06:53:47;;;;;;;9.10;8.10;;;;;;;10.77;100.00;99407.00;4905923;29;20056;-76
2022/09/19 06:56:37;;;;;;;11.23;8.00;;;;;;;10.83;100.00;99401.69;4911703;29;20051;-74
2022/09/19 07:03:12;;;;;;;10.67;8.03;;;;;;;10.76;100.00;99352.91;4843799;29;20057;-75
2022/09/19 07:05:45;;;;;;;9.27;8.27;;;;;;;10.99;100.00;99373.09;4904148;29;20040;-75
2022/09/19 07:08:24;;;;;;;11.70;7.43;;;;;;;10.95;100.00;99363.84;4913984;29;20092;-76
2022/09/19 07:10:50;;;;;;;11.87;8.23;;;;;;;11.11;100.00;99360.84;4895331;29;20116;-77
2022/09/19 07:13:16;;;;;;;11.93;9.17;;;;;;;11.14;100.00;99371.09;4893075;29;20510;-79
2022/09/19 07:15:42;;;;;;;12.40;8.17;;;;;;;10.95;100.00;99323.88;4917272;29;20055;-79
2022/09/19 07:18:23;;;;;;;11.27;8.73;;;;;;;11.18;100.00;99357.16;4928471;29;20043;-79
2022/09/19 07:21:36;;;;;;;9.80;8.80;;;;;;;11.20;100.00;99351.63;4915012;29;20037;-76
2022/09/19 07:40:06;;;;;;;11.37;8.57;;;;;;;11.30;100.00;99312.13;4901728;29;20546;-79
2022/09/19 07:42:32;;;;;;;11.23;7.93;;;;;;;11.36;100.00;99315.81;4911593;29;20071;-75
2022/09/19 07:45:01;;;;;;;13.43;9.17;;;;;;;11.34;100.00;99302.69;4919789;29;20099;-82
2022/09/19 07:51:08;;;;;;;11.77;9.57;;;;;;;11.12;100.00;99263.91;4920563;29;20039;-80
2022/09/19 07:54:26;;;;;;;10.77;8.83;;;;;;;11.44;100.00;99303.09;4922557;29;20040;-80
2022/09/19 08:01:34;;;;;;;;;;;;;;;;;;;;;
2022/09/19 08:26:35;;;;;;;11.83;6.80;;;;;;;11.53;99.99;99269.03;4823301;29;20053;-76
2022/09/19 08:37:03;;;;;;;6.23;4.20;;;;;;;11.82;99.13;99273.16;4805912;29;20065;-75
2022/09/19 08:39:29;;;;;;;4.70;4.20;;;;;;;11.77;98.71;99251.59;4804299;29;20129;-77
2022/09/19 08:42:18;;;;;;;4.30;3.90;;;;;;;11.84;97.30;99239.09;4807784;29;20507;-76
2022/09/19 08:45:32;;;;;;;3.97;3.40;;;;;;;12.09;96.85;99252.59;4879040;29;20127;-78
2022/09/19 08:48:02;;;;;;;3.97;3.30;;;;;;;12.15;95.91;99243.78;4879402;29;20060;-75
2022/09/19 08:50:32;;;;;;;6.47;3.53;;;;;;;12.12;96.09;99246.03;4900479;29;20036;-75
2022/09/19 08:53:01;;;;;;;3.37;2.57;;;;;;;12.12;94.58;99238.84;4899106;29;20572;-76
2022/09/19 08:55:32;;;;;;;3.00;2.70;;;;;;;12.14;94.92;99241.31;4899977;29;20045;-75
2022/09/19 08:58:10;;;;;;;3.73;2.80;;;;;;;12.18;94.70;99239.88;4899133;29;20032;-76
2022/09/19 09:00:44;;;;;;;4.00;2.30;;;;;;;12.12;93.82;99219.34;4883348;29;20048;-75
2022/09/19 09:03:51;;;;;;;2.73;2.37;;;;;;;12.15;94.60;99226.97;4881921;29;20080;-77
2022/09/19 09:06:46;;;;;;;3.57;2.40;;;;;;;11.93;94.48;99173.03;4844149;29;20036;-78
2022/09/19 09:09:49;;;;;;;2.77;2.57;;;;;;;12.21;93.87;99213.59;4901766;29;20084;-74
2022/09/19 09:12:31;;;;;;;4.10;2.97;;;;;;;12.16;94.52;99212.59;4921720;29;20075;-76
2022/09/19 09:15:22;;;;;;;4.80;3.27;;;;;;;12.22;94.96;99207.22;4921065;29;20025;-74
2022/09/19 09:18:01;;;;;;;;;;;;;;;;;;;;;
2022/09/19 09:21:21;;;;;;;3.33;3.03;;;;;;;12.20;94.45;99205.78;5120253;23;20060;-78
2022/09/19 09:31:45;;;;;;;2.83;2.60;;;;;;;12.15;94.51;99197.59;4921937;29;20177;-79
2022/09/19 09:37:56;;;;;;;5.40;2.57;;;;;;;11.85;95.41;99176.72;4869233;29;20137;-75
2022/09/19 09:43:44;;;;;;;3.30;3.00;;;;;;;11.95;94.97;99193.13;4917531;29;20469;-77
2022/09/19 10:04:30;;;;;;;3.67;2.43;;;;;;;11.70;95.79;99184.13;4839936;29;20064;-77
2022/09/19 10:07:41;;;;;;;4.23;2.33;;;;;;;11.62;96.04;99192.34;4835158;29;20058;-75
2022/09/19 10:10:38;;;;;;;3.53;2.63;;;;;;;11.64;95.96;99191.13;4832473;29;20282;-77
2022/09/19 10:16:47;;;;;;;2.60;2.23;;;;;;;11.54;94.62;99157.91;4838836;29;20038;-76
2022/09/19 10:19:47;;;;;;;2.40;2.17;;;;;;;11.72;94.54;99182.06;4838983;29;20475;-76
2022/09/19 10:22:17;;;;;;;4.07;2.30;;;;;;;11.75;94.46;99179.00;4889133;29;20060;-76
2022/09/19 10:24:53;;;;;;;4.87;2.83;;;;;;;11.69;94.26;99177.16;4870333;29;20049;-76
2022/09/19 10:27:23;;;;;;;2.30;2.10;;;;;;;11.69;94.45;99187.81;4874631;29;20036;-78
2022/09/19 10:30:08;;;;;;;3.00;2.23;;;;;;;11.65;94.16;99186.59;4889988;29;20044;-76
2022/09/19 10:32:37;;;;;;;4.77;2.60;;;;;;;11.60;93.90;99179.25;4876130;29;20064;-77
2022/09/19 10:35:26;;;;;;;3.65;2.67;;;;;;;11.60;94.07;99175.75;4888569;29;20033;-76
2022/09/19 10:38:17;;;;;;;3.17;2.87;;;;;;;11.64;94.21;99179.63;4889055;29;20040;-76
2022/09/19 10:40:59;;;;;;;3.33;3.03;;;;;;;11.65;94.20;99189.28;4895628;29;20063;-77
2022/09/19 10:43:40;;;;;;;5.23;2.37;;;;;;;11.61;94.08;99186.22;4897601;29;20067;-75
2022/09/19 10:46:07;;;;;;;3.10;2.03;;;;;;;11.54;94.54;99174.72;4896229;29;20492;-74
2022/09/19 10:48:35;;;;;;;2.70;2.40;;;;;;;11.53;94.81;99178.41;4888989;29;20442;-76
2022/09/19 10:51:08;;;;;;;2.83;2.63;;;;;;;11.53;95.12;99183.72;4890461;29;20033;-76
2022/09/19 10:53:36;;;;;;;2.77;2.57;;;;;;;11.46;95.77;99164.28;4892207;29;20059;-74
2022/09/19 10:56:28;;;;;;;;;;;;;;;11.45;95.90;99174.13;4889889;29;20033;-78
2022/09/19 10:59:02;;;;;;;3.17;2.43;;;;;;;11.35;96.50;99159.56;4885844;29;20257;-75
2022/09/19 11:01:28;;;;;;;4.23;3.03;;;;;;;11.38;97.00;99157.31;4884795;29;20053;-78
2022/09/19 11:04:18;;;;;;;2.97;2.73;;;;;;;11.42;96.53;99176.38;4893872;29;20064;-75
2022/09/19 11:07:02;;;;;;;3.33;2.40;;;;;;;11.35;97.39;99160.41;4874936;29;20036;-80
2022/09/19 11:09:36;;;;;;;2.70;2.50;;;;;;;11.21;96.93;99131.28;4874618;29;20473;-77
2022/09/19 11:12:20;;;;;;;3.53;2.43;;;;;;;11.24;96.97;99142.34;4891131;29;20036;-80
2022/09/19 11:14:48;;;;;;;3.57;2.57;;;;;;;11.29;97.04;99158.56;4891579;29;20123;-82
2022/09/19 11:17:46;;;;;;;2.70;2.20;;;;;;;11.36;97.15;99161.22;4897061;29;20097;-79
2022/09/19 11:23:50;;;;;;;4.00;2.43;;;;;;;11.33;97.84;99161.63;4902855;29;20055;-81
2022/09/19 11:27:17;;;;;;;2.27;2.07;;;;;;;11.33;97.34;99157.13;4899610;29;20059;-80
2022/09/19 11:30:11;;;;;;;3.55;2.10;;;;;;;11.24;98.23;99157.50;4904396;29;20040;-76
2022/09/19 11:33:08;;;;;;;3.53;2.83;;;;;;;11.03;98.31;99121.25;4903886;29;20041;-77
2022/09/19 11:35:54;;;;;;;2.57;2.30;;;;;;;11.12;98.85;99139.50;4904219;29;20056;-77
2022/09/19 11:38:44;;;;;;;3.40;2.40;;;;;;;11.17;98.73;99136.22;4904138;29;20036;-78
2022/09/19 11:41:36;;;;;;;2.57;2.37;;;;;;;11.12;99.08;99131.50;4893354;29;20353;-77
2022/09/19 11:44:43;;;;;;;3.53;2.50;;;;;;;11.15;99.43;99132.94;4893629;29;20043;-76
2022/09/19 11:47:27;;;;;;;2.83;2.10;;;;;;;11.13;99.38;99140.31;4865923;29;20056;-80
2022/09/19 11:50:05;;;;;;;2.50;2.30;;;;;;;11.13;98.98;99129.66;4904130;29;20044;-81
2022/09/19 11:53:01;;;;;;;3.90;2.55;;;;;;;11.08;98.73;99132.13;4898463;29;20364;-82
2022/09/19 11:56:14;;;;;;;4.97;3.07;;;;;;;11.16;98.53;99130.06;4909065;29;20130;-79
2022/09/19 11:58:54;;;;;;;3.50;2.77;;;;;;;11.15;98.72;99127.59;4906515;29;20547;-76
2022/09/19 12:01:40;;;;;;;3.63;2.67;;;;;;;11.16;98.58;99129.25;4904856;29;20044;-79
2022/09/19 12:04:18;;;;;;;3.43;2.73;;;;;;;11.15;98.15;99127.59;4901396;29;20091;-77
2022/09/19 12:10:31;;;;;;;3.90;2.60;;;;;;;11.07;99.05;99119.81;4901458;29;20056;-79
2022/09/19 12:13:16;;;;;;;5.13;2.50;;;;;;;11.17;99.05;99136.22;4915180;29;20100;-80
2022/09/19 12:16:10;;;;;;;3.40;2.50;;;;;;;11.10;98.49;99128.22;4910005;29;20075;-80
2022/09/19 12:19:10;;;;;;;5.33;3.17;;;;;;;11.14;98.33;99125.97;4907584;29;20039;-78
2022/09/19 12:22:15;;;;;;;5.10;2.40;;;;;;;11.11;98.58;99132.53;4906609;29;20055;-77
2022/09/19 12:25:21;;;;;;;2.83;2.60;;;;;;;11.12;99.00;99138.69;4910734;29;20090;-79
2022/09/19 12:28:13;;;;;;;8.50;2.50;;;;;;;10.88;98.56;99104.66;4910425;29;20076;-79
2022/09/19 12:30:48;;;;;;;3.03;2.73;;;;;;;11.10;98.63;99141.53;4902004;29;20040;-79
2022/09/19 12:33:46;;;;;;;3.37;2.60;;;;;;;11.14;98.64;99131.28;4906454;29;20051;-80
2022/09/19 12:39:27;;;;;;;4.70;2.70;;;;;;;11.14;98.36;99140.09;4901644;29;20077;-79
2022/09/19 12:42:32;;;;;;;3.17;2.87;;;;;;;11.03;98.36;99139.91;4908496;29;20032;-77
2022/09/19 12:45:13;;;;;;;5.23;2.40;;;;;;;11.03;98.14;99123.94;4879591;29;20111;-77
2022/09/19 12:47:53;;;;;;;4.10;3.40;;;;;;;11.14;98.40;99137.44;4875375;29;20044;-77
2022/09/19 12:50:53;;;;;;;3.57;3.20;;;;;;;11.12;99.41;99123.50;4889816;29;20047;-78
2022/09/19 12:53:51;;;;;;;5.40;3.00;;;;;;;10.80;99.25;99087.03;4899016;29;20048;-77
2022/09/19 13:04:13;;;;;;;4.33;3.07;;;;;;;10.84;99.80;99114.91;4880311;29;20504;-78
2022/09/19 13:06:42;;;;;;;4.90;2.77;;;;;;;10.86;99.57;99124.31;4882508;29;20139;-77
2022/09/19 13:09:35;;;;;;;4.40;2.83;;;;;;;10.86;99.93;99121.66;4897221;29;20515;-78
2022/09/19 13:12:11;;;;;;;5.30;3.40;;;;;;;10.87;99.96;99122.47;4895812;29;20060;-77
2022/09/19 13:14:53;;;;;;;4.67;3.23;;;;;;;10.81;100.00;99126.78;4896925;29;20389;-77
2022/09/19 13:26:07;;;;;;;3.20;2.67;;;;;;;10.83;99.79;99114.09;4858051;29;20069;-78
2022/09/19 13:28:54;;;;;;;3.72;3.03;;;;;;;10.89;99.68;99111.63;4846634;29;20069;-76
2022/09/19 13:46:40;;;;;;;3.37;3.07;;;;;;;10.53;100.00;99059.59;4842892;29;20076;-76
2022/09/19 13:49:19;;;;;;;4.13;2.40;;;;;;;10.83;100.00;99108.75;4840137;29;20038;-76
2022/09/19 13:52:32;;;;;;;3.23;2.93;;;;;;;10.79;100.00;99109.38;4878477;29;20052;-77
2022/09/19 13:55:13;;;;;;;3.60;2.80;;;;;;;10.78;99.70;99102.41;4840408;29;20075;-72
2022/09/19 14:01:13;;;;;;;2.93;2.63;;;;;;;10.80;100.00;99100.34;4825578;29;20058;-76
2022/09/19 14:03:51;;;;;;;3.60;3.30;;;;;;;10.81;99.83;99102.00;4877637;29;20134;-74
2022/09/19 14:06:25;;;;;;;3.33;2.88;;;;;;;10.80;99.63;99117.16;4866462;29;20481;-80
2022/09/19 14:09:31;;;;;;;5.10;3.00;;;;;;;10.80;99.43;99116.34;4881900;29;20372;-79
2022/09/19 14:11:59;;;;;;;3.13;2.73;;;;;;;10.74;99.29;99099.34;4882163;29;20048;-79
2022/09/19 14:14:47;;;;;;;3.80;2.80;;;;;;;10.76;99.70;99113.25;4883009;29;20397;-79
2022/09/19 14:17:36;;;;;;;3.53;3.22;;;;;;;10.77;99.37;99116.75;4891990;29;20040;-78
2022/09/19 14:20:05;;;;;;;4.30;3.80;;;;;;;10.76;99.58;99102.63;4905920;29;20036;-78
2022/09/19 14:22:34;;;;;;;3.60;2.87;;;;;;;10.79;99.55;99112.84;4902587;29;20021;-82
2022/09/19 14:25:18;;;;;;;3.73;3.10;;;;;;;10.78;99.23;99102.41;4887497;29;20021;-76
2022/09/19 14:28:21;;;;;;;4.73;3.60;;;;;;;10.80;99.59;99106.50;4900189;29;20056;-76
2022/09/19 14:31:18;;;;;;;5.90;3.10;;;;;;;10.79;99.34;99112.03;4903154;29;20052;-77
2022/09/19 14:34:22;;;;;;;3.35;2.90;;;;;;;10.73;99.20;99108.34;4892022;29;20441;-77
2022/09/19 14:37:06;;;;;;;3.13;2.63;;;;;;;10.73;99.57;99103.03;4835307;29;20046;-78
2022/09/19 14:40:04;;;;;;;4.40;3.00;;;;;;;10.66;99.80;99096.03;4902495;29;20036;-77
2022/09/19 14:42:53;;;;;;;3.67;3.37;;;;;;;10.65;100.00;99100.53;4914173;29;20043;-78
2022/09/19 14:45:28;;;;;;;5.17;2.80;;;;;;;10.64;100.00;99104.22;4907621;29;20048;-75
2022/09/19 14:48:03;;;;;;;4.43;3.07;;;;;;;10.53;100.00;99102.16;4909280;29;20091;-78
2022/09/19 14:51:10;;;;;;;3.90;3.50;;;;;;;10.51;100.00;99101.56;4902197;29;20136;-78
2022/09/19 14:53:38;;;;;;;3.73;2.90;;;;;;;10.44;100.00;99098.06;4875946;29;20052;-79